Time;durP1;ratioP1;P1;durP2;ratioP2;P2;SDS_P1;SDS_P2;PMS_P1;PMS_P2;Temp;Humidity;BMP_temperature;BMP_pressure;BME280_temperature;BME280_humidity;BME280_pressure;Samples;Min_cycle;Max_cycle;Signal;HPM_P1;HPM_P2
2022/11/19 00:00:44;;;;;;;;;6.00;6.00;;;;;9.13;73.00;100345.66;5042866;27;45422;-60
2022/11/19 00:03:10;;;;;;;;;3.00;3.00;;;;;9.09;72.51;100342.28;5082820;27;45667;-54
2022/11/19 00:05:43;;;;;;;;;10.25;6.00;;;;;9.08;73.14;100345.03;5077095;28;46134;-57
2022/11/19 00:08:09;;;;;;;;;11.50;5.00;;;;;9.06;72.82;100341.59;5077476;28;45276;-55
2022/11/19 00:10:38;;;;;;;;;8.50;6.00;;;;;9.05;72.51;100346.03;5078967;28;45223;-55
2022/11/19 00:13:05;;;;;;;;;6.00;6.00;;;;;9.06;73.16;100358.38;5072621;28;45493;-54
2022/11/19 00:15:33;;;;;;;;;3.00;3.00;;;;;9.04;73.11;100354.94;5070557;28;45488;-60
2022/11/19 00:17:59;;;;;;;;;3.00;3.00;;;;;9.00;72.72;100350.75;5077359;28;45454;-60
2022/11/19 00:20:25;;;;;;;;;6.00;5.00;;;;;9.01;72.63;100348.97;5066336;28;45366;-56
2022/11/19 00:22:52;;;;;;;;;9.00;4.00;;;;;9.01;72.82;100344.50;5078961;28;45291;-51
2022/11/19 00:25:22;;;;;;;;;7.50;5.50;;;;;8.99;72.98;100348.19;5059067;28;47799;-51
2022/11/19 00:27:47;;;;;;;;;5.00;5.00;;;;;8.98;73.73;100338.50;5078324;28;45172;-58
2022/11/19 00:30:13;;;;;;;;;7.00;5.75;;;;;8.97;73.42;100340.28;5076739;27;46324;-55
2022/11/19 00:32:38;;;;;;;;;10.00;5.50;;;;;8.96;73.42;100340.38;5079184;28;45287;-60
2022/11/19 00:35:04;;;;;;;;;13.00;4.50;;;;;8.95;73.96;100350.13;5077237;28;46016;-64
2022/11/19 00:37:29;;;;;;;;;7.00;2.75;;;;;8.97;73.67;100348.25;5078992;27;45302;-61
2022/11/19 00:39:55;;;;;;;;;5.00;5.00;;;;;8.97;73.39;100342.94;5072220;27;45541;-59
2022/11/19 00:42:21;;;;;;;;;5.50;5.50;;;;;8.97;73.82;100353.53;5059452;28;45213;-60
2022/11/19 00:44:46;;;;;;;;;7.50;6.00;;;;;8.96;73.30;100357.13;5069878;28;46274;-55
2022/11/19 00:47:14;;;;;;;;;5.50;5.50;;;;;8.95;74.00;100359.88;5077013;28;45369;-54
2022/11/19 00:49:39;;;;;;;;;6.25;6.00;;;;;8.95;74.37;100354.56;5077765;28;45472;-55
2022/11/19 00:52:05;;;;;;;;;8.50;5.00;;;;;8.95;73.52;100358.06;5078039;28;45620;-59
2022/11/19 00:54:30;;;;;;;;;6.50;5.00;;;;;8.91;73.76;100350.38;5058786;28;47211;-54
2022/11/19 00:56:55;;;;;;;;;6.50;4.00;;;;;8.90;73.87;100348.66;5078270;28;45398;-60
2022/11/19 00:59:24;;;;;;;;;6.75;3.00;;;;;8.86;73.41;100351.50;5077060;28;45442;-53
2022/11/19 01:01:49;;;;;;;;;5.50;5.50;;;;;8.81;74.31;100345.56;5059019;28;45235;-60
2022/11/19 01:04:15;;;;;;;;;5.00;5.00;;;;;8.79;74.15;100360.69;5075547;28;46357;-61
2022/11/19 01:06:41;;;;;;;;;5.00;5.00;;;;;8.75;74.18;100352.97;5078025;27;45858;-64
2022/11/19 01:09:07;;;;;;;;;6.25;4.50;;;;;8.73;73.89;100347.75;5072359;27;45304;-63
2022/11/19 01:11:34;;;;;;;;;2.00;2.00;;;;;8.69;74.25;100348.84;5070050;27;45292;-56
2022/11/19 01:14:01;;;;;;;;;8.25;4.50;;;;;8.69;74.47;100354.16;5053459;28;46190;-53
2022/11/19 01:16:32;;;;;;;;;7.25;4.00;;;;;8.71;73.88;100360.22;5070443;28;45393;-52
2022/11/19 01:18:58;;;;;;;;;6.50;6.50;;;;;8.71;74.61;100360.22;5077852;28;45330;-54
2022/11/19 01:21:27;;;;;;;;;4.50;4.00;;;;;8.67;74.74;100361.31;5075115;28;45429;-54
2022/11/19 01:23:52;;;;;;;;;3.00;2.75;;;;;8.65;74.88;100359.69;5076955;27;46982;-52
2022/11/19 01:26:18;;;;;;;;;5.50;5.00;;;;;8.64;75.41;100355.34;5078100;27;45292;-54
2022/11/19 01:28:46;;;;;;;;;7.00;6.00;;;;;8.65;74.55;100368.50;5076535;28;45243;-51
2022/11/19 01:31:15;;;;;;;;;5.00;3.00;;;;;8.66;74.58;100364.91;5078118;28;45612;-52
2022/11/19 01:33:41;;;;;;;;;2.00;2.00;;;;;8.65;75.57;100383.56;5076405;28;46747;-57
2022/11/19 01:36:21;;;;;;;;;4.50;4.50;;;;;8.67;74.56;100386.97;5077537;27;45494;-52
2022/11/19 01:38:49;;;;;;;;;3.00;3.00;;;;;8.66;74.63;100399.38;5075595;28;45237;-59
2022/11/19 01:41:29;;;;;;;;;10.00;5.75;;;;;8.62;75.44;100378.41;5041145;28;45538;-58
2022/11/19 01:43:58;;;;;;;;;3.50;2.50;;;;;8.61;74.65;100380.22;5075174;28;46281;-56
2022/11/19 01:46:26;;;;;;;;;2.00;2.00;;;;;8.58;75.00;100375.03;5076949;28;45475;-55
2022/11/19 01:49:10;;;;;;;;;3.75;3.00;;;;;8.61;74.56;100385.50;5074399;27;45619;-57
2022/11/19 01:51:55;;;;;;;;;6.00;6.00;;;;;8.55;74.80;100378.72;5056707;28;45490;-56
2022/11/19 01:54:29;;;;;;;;;5.75;3.00;;;;;8.57;75.43;100390.09;5061734;28;46148;-53
2022/11/19 01:56:59;;;;;;;;;5.50;3.00;;;;;8.54;75.20;100392.03;5077000;28;45322;-53
2022/11/19 01:59:26;;;;;;;;;7.75;3.00;;;;;8.51;75.59;100390.41;5058167;28;45296;-54
2022/11/19 02:01:51;;;;;;;;;4.50;4.50;;;;;8.47;75.80;100391.53;5076985;28;45222;-53
2022/11/19 02:04:19;;;;;;;;;9.00;4.50;;;;;8.49;74.63;100389.66;5076675;27;45228;-54
2022/11/19 02:06:46;;;;;;;;;5.00;2.75;;;;;8.48;75.06;100392.38;5076229;27;45407;-53
2022/11/19 02:09:11;;;;;;;;;6.50;2.50;;;;;8.48;75.08;100387.06;5077500;28;45493;-53
2022/11/19 02:12:02;;;;;;;;;3.50;3.50;;;;;8.44;75.11;100385.50;5076038;27;45433;-51
2022/11/19 02:15:18;;;;;;;;;4.50;4.50;;;;;8.41;75.34;100385.66;5061852;27;46379;-55
2022/11/19 02:17:49;;;;;;;;;5.00;5.00;;;;;8.41;75.19;100396.25;5018531;28;45522;-62
2022/11/19 02:21:09;;;;;;;;;3.50;3.50;;;;;8.42;74.95;100390.88;5070720;27;45527;-61
2022/11/19 02:23:58;;;;;;;;;7.25;4.75;;;;;8.40;75.39;100387.44;5028002;28;45451;-50
2022/11/19 02:27:04;;;;;;;;;7.00;6.00;;;;;8.41;75.43;100380.34;5068489;27;46713;-63
2022/11/19 02:29:30;;;;;;;;;1.25;1.25;;;;;8.40;76.11;100383.94;5034928;28;45444;-59
2022/11/19 02:32:13;;;;;;;;;2.75;2.75;;;;;8.35;75.75;100389.47;5073103;27;45466;-59
2022/11/19 02:34:53;;;;;;;;;5.00;5.00;;;;;8.31;75.75;100385.22;5065827;27;45410;-56
2022/11/19 02:37:30;;;;;;;;;5.00;5.00;;;;;8.37;75.68;100386.75;5066550;27;45342;-59
2022/11/19 02:40:13;;;;;;;;;9.25;5.25;;;;;8.37;76.43;100387.59;5058179;28;45359;-54
2022/11/19 02:42:46;;;;;;;;;5.75;5.50;;;;;8.40;75.85;100387.44;5059222;28;45354;-54
2022/11/19 02:45:19;;;;;;;;;3.50;3.50;;;;;8.36;75.51;100377.09;5073983;27;45287;-52
2022/11/19 02:47:59;;;;;;;;;8.50;6.00;;;;;8.41;75.86;100383.00;5055180;27;46472;-57
2022/11/19 02:50:41;;;;;;;;;3.00;3.00;;;;;8.41;75.78;100385.66;5057507;27;45348;-54
2022/11/19 02:53:06;;;;;;;;;6.75;5.50;;;;;8.45;75.81;100381.91;5076420;28;45189;-57
2022/11/19 02:55:38;;;;;;;;;4.00;2.25;;;;;8.44;75.13;100385.50;5071145;27;45497;-58
2022/11/19 03:04:28;;;;;;;;;5.50;5.50;;;;;8.45;75.34;100379.25;5055731;28;46084;-63
2022/11/19 03:06:39;;;;;;;;;5.00;5.00;;;;;8.52;76.19;100388.63;5077085;27;45705;-52
2022/11/19 03:09:04;;;;;;;;;5.00;5.00;;;;;8.48;75.93;100385.28;5059038;27;46495;-52
2022/11/19 03:11:31;;;;;;;;;7.00;5.00;;;;;8.47;75.09;100386.22;5067225;27;45376;-52
2022/11/19 03:17:04;;;;;;;;;8.00;4.50;;;;;8.59;75.94;100390.00;5060957;27;45558;-55
2022/11/19 03:19:41;;;;;;;;;3.00;3.00;;;;;8.57;75.66;100387.44;5074484;27;45476;-51
2022/11/19 03:22:15;;;;;;;;;5.25;5.25;;;;;8.61;76.24;100397.91;5067401;27;45368;-57
2022/11/19 03:24:59;;;;;;;;;5.50;5.50;;;;;8.59;75.64;100400.59;5074587;27;45334;-54
2022/11/19 03:27:31;;;;;;;;;5.00;5.00;;;;;8.64;75.33;100398.59;5078307;27;45632;-51
2022/11/19 03:30:00;;;;;;;;;8.50;6.50;;;;;8.60;75.62;100397.06;5073357;27;46285;-61
2022/11/19 03:32:39;;;;;;;;;5.50;5.50;;;;;8.66;75.07;100407.34;5074650;27;45342;-54
2022/11/19 03:35:10;;;;;;;;;7.25;7.25;;;;;8.57;75.90;100395.41;5052817;28;45568;-51
2022/11/19 03:37:41;;;;;;;;;7.00;5.00;;;;;8.67;76.19;100409.03;5059687;27;45304;-53
2022/11/19 03:40:14;;;;;;;;;9.25;5.50;;;;;8.67;75.95;100406.38;5069687;27;46277;-51
2022/11/19 03:42:42;;;;;;;;;8.00;6.00;;;;;8.65;75.59;100410.06;5059012;28;45347;-55
2022/11/19 03:45:15;;;;;;;;;6.00;6.00;;;;;8.60;76.16;100397.06;5070131;27;45562;-50
2022/11/19 03:47:43;;;;;;;;;5.00;5.00;;;;;8.69;75.22;100408.97;5070864;27;45617;-52
2022/11/19 03:50:16;;;;;;;;;3.50;2.25;;;;;8.66;76.18;100409.97;5063801;27;46679;-58
2022/11/19 03:52:42;;;;;;;;;7.00;6.00;;;;;8.71;74.93;100409.75;5058873;28;45189;-57
2022/11/19 03:55:07;;;;;;;;;3.00;3.00;;;;;8.63;75.21;100402.19;5071740;27;45317;-52
2022/11/19 03:57:33;;;;;;;;;9.25;6.00;;;;;8.66;75.85;100415.28;5076466;27;45596;-50
2022/11/19 03:59:58;;;;;;;;;3.50;3.50;;;;;8.62;75.86;100418.19;5077693;28;45944;-53
2022/11/19 04:02:24;;;;;;;;;8.50;5.00;;;;;8.60;75.14;100422.72;5058712;27;45390;-57
2022/11/19 04:04:49;;;;;;;;;5.00;3.00;;;;;8.61;75.93;100419.13;5074867;27;45665;-52
2022/11/19 04:07:18;;;;;;;;;6.50;5.75;;;;;8.62;76.56;100413.75;5056611;28;45592;-54
2022/11/19 04:09:44;;;;;;;;;5.25;5.25;;;;;8.60;75.80;100418.25;5066643;28;45534;-50
2022/11/19 04:12:18;;;;;;;;;5.75;4.00;;;;;8.65;76.43;100420.66;5076552;27;45382;-50
2022/11/19 04:14:44;;;;;;;;;9.00;4.50;;;;;8.68;75.79;100417.84;5059555;28;45532;-53
2022/11/19 04:17:09;;;;;;;;;5.00;5.00;;;;;8.66;75.85;100423.25;5060018;27;45331;-50
2022/11/19 04:19:35;;;;;;;;;6.00;3.00;;;;;8.66;76.17;100425.88;5058138;28;46046;-58
2022/11/19 04:22:00;;;;;;;;;5.00;5.00;;;;;8.62;76.07;100416.38;5075099;27;45227;-62
2022/11/19 04:24:26;;;;;;;;;5.00;5.00;;;;;8.64;76.43;100417.16;5076137;27;45444;-58
2022/11/19 04:26:51;;;;;;;;;10.75;5.00;;;;;8.65;75.67;100425.97;5062087;27;45419;-52
2022/11/19 04:29:17;;;;;;;;;5.00;3.00;;;;;8.66;76.02;100427.69;5070138;27;46055;-54
2022/11/19 04:31:42;;;;;;;;;5.75;3.00;;;;;8.66;76.35;100427.69;5064024;27;45375;-55
2022/11/19 04:34:08;;;;;;;;;5.00;5.00;;;;;8.61;76.00;100425.28;5078021;27;45603;-54
2022/11/19 04:36:34;;;;;;;;;4.00;4.00;;;;;8.56;75.75;100428.13;5064328;27;45469;-55
2022/11/19 04:38:59;;;;;;;;;3.00;3.00;;;;;8.68;75.58;100442.56;5039111;28;45810;-51
2022/11/19 04:41:24;;;;;;;;;4.00;2.75;;;;;8.71;76.32;100446.84;5040227;28;45513;-50
2022/11/19 04:43:50;;;;;;;;;5.25;2.50;;;;;8.76;75.71;100456.31;5044846;28;45419;-54
2022/11/19 04:46:15;;;;;;;;;3.00;3.00;;;;;8.79;76.04;100456.16;5078675;27;45514;-56
2022/11/19 04:48:41;;;;;;;;;4.50;4.50;;;;;8.82;75.84;100457.78;5076878;27;46244;-54
2022/11/19 04:51:06;;;;;;;;;5.25;5.25;;;;;8.86;75.37;100449.59;5067408;27;45390;-56
2022/11/19 04:53:31;;;;;;;;;6.00;3.00;;;;;8.93;75.93;100447.47;5058914;28;45943;-53
2022/11/19 04:55:57;;;;;;;;;7.50;6.00;;;;;8.94;76.01;100451.84;5056554;27;45367;-50
2022/11/19 04:58:22;;;;;;;;;7.00;7.00;;;;;8.91;76.04;100436.09;5058448;27;45590;-55
2022/11/19 05:00:48;;;;;;;;;5.00;3.00;;;;;9.01;75.47;100452.41;5060387;27;45205;-56
2022/11/19 05:03:13;;;;;;;;;7.00;6.00;;;;;8.97;76.05;100461.44;5058573;28;45275;-50
2022/11/19 05:05:39;;;;;;;;;4.50;4.50;;;;;8.97;75.12;100458.78;5076347;27;45582;-54
2022/11/19 05:08:04;;;;;;;;;5.00;5.00;;;;;8.92;74.78;100455.53;5075817;28;63394;-49
2022/11/19 05:10:31;;;;;;;;;3.00;3.00;;;;;8.90;75.66;100465.34;5076177;27;45482;-52
2022/11/19 05:12:56;;;;;;;;;3.00;3.00;;;;;8.80;75.38;100455.22;5085456;27;45416;-51
2022/11/19 05:15:21;;;;;;;;;5.00;5.00;;;;;8.85;75.99;100461.16;5069947;27;45249;-52
2022/11/19 05:17:47;;;;;;;;;9.00;6.00;;;;;8.81;75.37;100464.88;5058364;27;46311;-50
2022/11/19 05:20:12;;;;;;;;;6.00;6.00;;;;;8.75;76.51;100464.34;5057907;27;46282;-53
2022/11/19 05:22:38;;;;;;;;;7.00;5.50;;;;;8.74;76.71;100462.63;5077824;28;45332;-59
2022/11/19 05:25:04;;;;;;;;;6.00;6.00;;;;;8.71;76.89;100474.22;5076522;27;45300;-51
2022/11/19 05:27:29;;;;;;;;;6.00;6.00;;;;;8.69;77.07;100454.88;5075027;27;45992;-50
2022/11/19 05:29:54;;;;;;;;;6.00;5.50;;;;;8.67;76.94;100455.91;5056857;27;45910;-50
2022/11/19 05:32:20;;;;;;;;;8.50;5.50;;;;;8.65;77.45;100461.28;5069665;27;45628;-59
2022/11/19 05:34:47;;;;;;;;;6.50;5.50;;;;;8.65;76.70;100463.09;5081485;27;45373;-54
2022/11/19 05:37:13;;;;;;;;;5.25;5.25;;;;;8.63;76.45;100463.16;5076582;27;46592;-57
2022/11/19 05:39:38;;;;;;;;;7.00;5.00;;;;;8.57;77.18;100458.16;5078029;27;45277;-61
2022/11/19 05:42:04;;;;;;;;;7.50;6.00;;;;;8.58;76.89;100457.22;5075329;27;45352;-49
2022/11/19 05:44:29;;;;;;;;;6.50;5.25;;;;;8.58;77.61;100463.38;5056307;28;45644;-50
2022/11/19 05:46:56;;;;;;;;;12.75;6.75;;;;;8.57;76.82;100463.44;5037765;28;45443;-53
2022/11/19 05:49:22;;;;;;;;;5.25;3.00;;;;;8.54;77.17;100463.63;5056813;28;45367;-52
2022/11/19 05:51:47;;;;;;;;;6.75;6.50;;;;;8.53;77.85;100459.25;5074199;27;45371;-58
2022/11/19 05:54:12;;;;;;;;;9.00;7.00;;;;;8.49;77.69;100457.69;5076198;27;45339;-64
2022/11/19 05:56:38;;;;;;;;;6.50;5.00;;;;;8.45;77.66;100453.47;5073934;27;46827;-60
2022/11/19 05:59:03;;;;;;;;;9.50;7.00;;;;;8.41;77.87;100455.41;5075984;28;45512;-57
2022/11/19 06:01:29;;;;;;;;;7.50;6.00;;;;;8.43;77.97;100460.63;5076475;27;45486;-59
2022/11/19 06:03:55;;;;;;;;;6.50;6.50;;;;;8.44;78.76;100454.41;5076116;27;45480;-55
2022/11/19 06:06:21;;;;;;;;;6.50;6.00;;;;;8.43;78.02;100463.28;5071155;27;46351;-50
2022/11/19 06:08:47;;;;;;;;;6.00;6.00;;;;;8.42;78.70;100458.91;5076255;27;45416;-55
2022/11/19 06:13:57;;;;;;;;;9.25;9.00;;;;;8.47;79.29;100459.56;5075954;28;45480;-53
2022/11/19 06:16:23;;;;;;;;;7.50;6.00;;;;;8.47;79.30;100462.22;5075753;27;46135;-54
2022/11/19 06:18:48;;;;;;;;;9.00;9.00;;;;;8.47;78.54;100459.56;5076408;28;45299;-54
2022/11/19 06:21:13;;;;;;;;;9.50;7.00;;;;;8.52;79.90;100463.69;5076166;28;45744;-55
2022/11/19 06:23:39;;;;;;;;;6.00;6.00;;;;;8.56;79.15;100464.38;5077007;28;45158;-59
2022/11/19 06:26:06;;;;;;;;;10.50;6.00;;;;;8.46;78.70;100448.09;5074892;28;46703;-61
2022/11/19 06:28:32;;;;;;;;;9.50;6.75;;;;;8.61;77.90;100459.75;5076602;28;45501;-63
2022/11/19 06:30:57;;;;;;;;;5.50;5.50;;;;;8.71;78.51;100478.66;5075387;28;45196;-53
2022/11/19 06:33:22;;;;;;;;;6.25;6.00;;;;;8.74;78.43;100474.09;5076885;28;45590;-54
2022/11/19 06:35:49;;;;;;;;;3.00;3.00;;;;;8.79;78.09;100477.34;5074840;28;46307;-55
2022/11/19 06:38:15;;;;;;;;;6.00;4.50;;;;;8.82;78.57;100484.28;5059414;28;45430;-55
2022/11/19 06:40:40;;;;;;;;;7.00;5.50;;;;;8.86;78.05;100492.03;5063815;28;45630;-55
2022/11/19 06:43:06;;;;;;;;;6.75;6.00;;;;;8.74;77.89;100462.63;5075699;28;45532;-58
2022/11/19 06:45:31;;;;;;;;;6.00;6.00;;;;;8.93;77.97;100489.06;5054899;28;45404;-50
2022/11/19 06:47:56;;;;;;;;;6.75;5.25;;;;;8.97;78.17;100495.91;5056293;28;45306;-52
2022/11/19 06:50:22;;;;;;;;;11.75;7.75;;;;;9.04;77.75;100505.28;5039147;28;45312;-59
2022/11/19 06:52:47;;;;;;;;;6.00;6.00;;;;;9.03;76.63;100507.09;5077792;27;45637;-53
2022/11/19 06:55:13;;;;;;;;;6.00;6.00;;;;;9.00;77.62;100498.44;5074216;28;45307;-53
2022/11/19 06:57:38;;;;;;;;;9.25;5.25;;;;;9.09;77.55;100511.22;5041266;28;45316;-52
2022/11/19 07:00:04;;;;;;;;;6.00;6.00;;;;;9.07;76.56;100507.78;5071513;28;45552;-52
2022/11/19 07:02:30;;;;;;;;;7.00;5.75;;;;;9.08;77.53;100509.50;5075807;28;45534;-53
2022/11/19 07:04:55;;;;;;;;;9.00;6.00;;;;;9.09;76.71;100524.47;5057375;28;46223;-56
2022/11/19 07:07:21;;;;;;;;;6.00;6.00;;;;;9.14;78.21;100514.50;5054249;28;45782;-54
2022/11/19 07:09:46;;;;;;;;;5.00;5.00;;;;;9.14;77.62;100517.16;5071563;28;45236;-57
2022/11/19 07:12:11;;;;;;;;;7.25;7.00;;;;;9.20;77.94;100522.13;5047234;28;45362;-58
2022/11/19 07:14:37;;;;;;;;;11.00;10.00;;;;;9.20;76.54;100532.75;5059008;28;46145;-54
2022/11/19 07:17:04;;;;;;;;;6.25;4.50;;;;;9.20;77.50;100534.53;5071076;28;45485;-53
2022/11/19 07:19:29;;;;;;;;;9.00;6.00;;;;;9.22;77.44;100533.53;5061570;28;45339;-54
2022/11/19 07:21:55;;;;;;;;;7.00;7.00;;;;;9.18;77.60;100534.63;5079054;28;45360;-62
2022/11/19 07:24:20;;;;;;;;;6.75;6.50;;;;;9.21;77.72;100541.56;5062373;28;45505;-61
2022/11/19 07:26:45;;;;;;;;;13.25;10.25;;;;;9.24;77.83;100542.25;5076981;27;45536;-56
2022/11/19 07:29:14;;;;;;;;;14.25;12.25;;;;;9.31;77.06;100553.44;5055760;28;45568;-60
2022/11/19 07:31:39;;;;;;;;;17.00;9.75;;;;;9.35;76.27;100539.06;5060829;28;45271;-60
2022/11/19 07:34:09;;;;;;;;;7.25;6.00;;;;;9.41;76.47;100549.38;5078222;27;45215;-62
2022/11/19 07:36:35;;;;;;;;;7.25;6.50;;;;;9.43;76.24;100553.66;5052639;27;45477;-60
2022/11/19 07:39:00;;;;;;;;;7.25;7.25;;;;;9.50;76.92;100553.31;5057549;28;45449;-63
2022/11/19 07:44:12;;;;;;;;;12.00;9.75;;;;;9.52;76.05;100556.78;5079003;28;45386;-66
2022/11/19 07:46:39;;;;;;;;;11.75;11.75;;;;;9.56;75.93;100561.00;5078849;27;45455;-65
2022/11/19 07:49:04;;;;;;;;;11.75;10.25;;;;;9.56;75.83;100563.63;5080547;27;45402;-63
2022/11/19 07:51:30;;;;;;;;;7.75;7.75;;;;;9.56;75.72;100574.25;5086603;27;45635;-64
2022/11/19 07:53:55;;;;;;;;;11.00;9.75;;;;;9.54;75.23;100573.50;5081161;27;45616;-58
2022/11/19 07:56:21;;;;;;;;;7.25;7.25;;;;;9.52;76.02;100573.56;5065490;27;45550;-64
2022/11/19 07:58:47;;;;;;;;;6.75;6.75;;;;;9.52;75.66;100572.72;5068003;27;45235;-65
2022/11/19 08:01:17;;;;;;;;;8.25;8.00;;;;;9.57;75.02;100584.81;5082034;27;45577;-59
2022/11/19 08:03:45;;;;;;;;;8.00;6.50;;;;;9.56;76.36;100584.88;5076547;27;46444;-62
2022/11/19 08:06:14;;;;;;;;;8.75;7.00;;;;;9.54;76.00;100584.09;5067569;27;45624;-56
2022/11/19 08:08:41;;;;;;;;;8.25;8.25;;;;;9.51;75.24;100586.94;5074560;27;46819;-57
2022/11/19 08:11:09;;;;;;;;;9.75;9.75;;;;;9.55;75.78;100594.66;5066139;27;45508;-56
2022/11/19 08:13:35;;;;;;;;;7.75;7.00;;;;;9.52;75.94;100593.94;5077336;27;45596;-64
2022/11/19 08:16:09;;;;;;;;;6.75;6.25;;;;;9.57;75.64;100602.53;5050866;27;45829;-56
2022/11/19 08:18:35;;;;;;;;;6.75;6.75;;;;;9.61;75.44;100609.38;5043256;28;45377;-57
2022/11/19 08:21:08;;;;;;;;;9.00;9.00;;;;;9.64;75.76;100603.94;5077797;27;45227;-55
2022/11/19 08:23:36;;;;;;;;;6.00;3.00;;;;;9.64;74.75;100612.75;5078411;28;45443;-55
2022/11/19 08:26:04;;;;;;;;;6.75;6.00;;;;;9.65;74.94;100614.47;5076064;27;45554;-53
2022/11/19 08:28:30;;;;;;;;;8.25;7.75;;;;;9.67;74.81;100628.53;5064370;27;45513;-55
2022/11/19 08:30:56;;;;;;;;;6.00;6.00;;;;;9.67;74.64;100630.31;5058162;28;45334;-55
2022/11/19 08:33:21;;;;;;;;;10.75;9.00;;;;;9.60;74.69;100615.63;5058436;28;45426;-61
2022/11/19 08:35:47;;;;;;;;;11.00;9.75;;;;;9.69;74.62;100626.66;5058475;28;45325;-60
2022/11/19 08:38:13;;;;;;;;;8.00;7.25;;;;;9.69;75.17;100625.78;5073311;27;45627;-64
2022/11/19 08:40:38;;;;;;;;;9.50;9.25;;;;;9.80;74.44;100631.41;5077870;27;45320;-57
2022/11/19 08:43:03;;;;;;;;;7.25;7.25;;;;;9.78;74.67;100627.97;5077548;27;46070;-60
2022/11/19 08:45:35;;;;;;;;;7.00;6.50;;;;;9.84;74.24;100625.00;5061657;28;45418;-55
2022/11/19 08:48:03;;;;;;;;;8.25;8.25;;;;;9.93;74.34;100635.13;5062759;27;46124;-63
2022/11/19 08:50:29;;;;;;;;;9.50;9.50;;;;;9.93;74.01;100636.94;5060696;27;45531;-67
2022/11/19 08:52:56;;;;;;;;;10.50;9.50;;;;;9.97;77.78;100639.34;5084896;27;45930;-55
2022/11/19 08:55:22;;;;;;;;;9.50;9.50;;;;;10.00;75.15;100641.81;5071507;27;45462;-54
2022/11/19 08:57:48;;;;;;;;;9.50;7.50;;;;;10.01;75.12;100637.38;5075857;27;45340;-56
2022/11/19 09:00:14;;;;;;;;;6.75;6.75;;;;;10.13;75.22;100636.72;5064177;27;45395;-61
2022/11/19 09:02:40;;;;;;;;;7.50;7.50;;;;;10.21;74.64;100644.31;5077596;27;46504;-58
2022/11/19 09:05:06;;;;;;;;;7.50;6.25;;;;;10.23;74.14;100648.63;5059520;28;45469;-56
2022/11/19 09:07:31;;;;;;;;;6.00;6.00;;;;;10.31;72.98;100653.53;5078426;28;45363;-58
2022/11/19 09:09:56;;;;;;;;;9.00;6.00;;;;;10.30;73.09;100646.50;5078316;27;45567;-55
2022/11/19 09:12:22;;;;;;;;;7.25;6.25;;;;;10.28;72.55;100657.19;5060159;28;47347;-52
2022/11/19 09:14:49;;;;;;;;;6.75;5.75;;;;;10.27;72.92;100651.97;5059803;28;45447;-55
2022/11/19 09:17:14;;;;;;;;;15.00;8.75;;;;;10.28;72.82;100651.88;5059905;28;45263;-55
2022/11/19 09:19:40;;;;;;;;;2.75;2.75;;;;;10.30;72.52;100652.69;5078173;27;45612;-62
2022/11/19 09:22:05;;;;;;;;;6.75;5.50;;;;;10.30;72.88;100651.81;5060233;28;46618;-52
2022/11/19 09:24:30;;;;;;;;;6.75;4.75;;;;;10.36;72.66;100656.78;5078760;28;45374;-63
2022/11/19 09:26:56;;;;;;;;;7.75;6.75;;;;;10.42;72.89;100656.47;5079073;28;45804;-61
2022/11/19 09:29:21;;;;;;;;;7.00;6.25;;;;;10.44;72.25;100638.63;5078224;28;45668;-64
2022/11/19 09:31:46;;;;;;;;;7.00;7.00;;;;;10.49;72.29;100647.22;5077821;27;46186;-59
2022/11/19 09:34:12;;;;;;;;;6.75;6.75;;;;;10.46;72.23;100652.69;5076548;27;45485;-59
2022/11/19 09:36:37;;;;;;;;;5.50;5.50;;;;;10.50;72.65;100654.25;5078172;28;45230;-52
2022/11/19 09:39:03;;;;;;;;;12.25;10.25;;;;;10.55;72.24;100651.34;5042913;28;45454;-53
2022/11/19 09:42:10;;;;;;;;;9.75;7.00;;;;;10.62;71.68;100666.88;5042462;28;47932;-56
2022/11/19 09:45:14;;;;;;;;;9.25;7.00;;;;;10.63;71.73;100665.91;5059173;28;45317;-62
2022/11/19 09:48:12;;;;;;;;;7.00;7.00;;;;;10.64;71.60;100666.78;5025619;28;45512;-58
2022/11/19 09:50:49;;;;;;;;;6.75;5.50;;;;;10.72;71.24;100679.66;5036725;28;45510;-56
2022/11/19 09:53:18;;;;;;;;;10.00;7.25;;;;;10.77;71.73;100672.28;5057213;28;45378;-58
2022/11/19 09:55:46;;;;;;;;;7.25;7.25;;;;;10.80;71.35;100670.28;5056889;28;45426;-53
2022/11/19 09:58:31;;;;;;;;;6.00;4.25;;;;;10.90;71.75;100667.97;5038962;28;45490;-57
2022/11/19 10:00:58;;;;;;;;;9.33;7.67;;;;;10.91;71.15;100669.69;5057197;28;45380;-55
2022/11/19 10:03:24;;;;;;;;;12.00;9.25;;;;;10.92;70.48;100666.94;5056257;28;45413;-53
2022/11/19 10:05:55;;;;;;;;;10.00;8.75;;;;;10.92;70.72;100669.59;5056644;28;45533;-61
2022/11/19 10:08:48;;;;;;;;;8.25;8.00;;;;;10.98;70.66;100673.75;5038712;28;45437;-56
2022/11/19 10:11:38;;;;;;;;;7.25;6.50;;;;;10.99;70.64;100670.13;5038716;28;45717;-50
2022/11/19 10:14:28;;;;;;;;;11.25;7.00;;;;;11.00;71.09;100669.19;5037988;28;45252;-51
2022/11/19 10:17:17;;;;;;;;;12.75;12.00;;;;;10.97;70.62;100673.84;5038385;28;45340;-53
2022/11/19 10:20:09;;;;;;;;;8.75;6.75;;;;;10.96;70.87;100666.81;5056328;28;45458;-50
2022/11/19 10:22:48;;;;;;;;;10.50;9.00;;;;;10.93;70.64;100667.81;5038593;28;45569;-56
2022/11/19 10:25:22;;;;;;;;;13.00;13.00;;;;;10.77;70.66;100672.28;5056397;28;45647;-51
2022/11/19 10:28:02;;;;;;;;;13.00;10.50;;;;;10.64;71.46;100649.00;5038564;28;45323;-56
2022/11/19 10:30:29;;;;;;;;;11.75;9.25;;;;;10.62;70.84;100669.53;5057376;28;45265;-51
2022/11/19 10:33:11;;;;;;;;;13.00;9.50;;;;;10.60;71.99;100666.09;5056688;28;45493;-53
2022/11/19 10:35:47;;;;;;;;;11.50;11.50;;;;;10.69;72.12;100663.88;5056274;28;45716;-51
2022/11/19 10:38:23;;;;;;;;;14.25;12.00;;;;;10.89;71.02;100666.28;5037774;28;45347;-53
2022/11/19 10:41:01;;;;;;;;;10.75;10.75;;;;;11.03;71.19;100665.50;5071467;28;45262;-55
2022/11/19 10:43:37;;;;;;;;;15.25;13.00;;;;;11.14;69.63;100657.75;5058706;28;45455;-54
2022/11/19 10:46:07;;;;;;;;;12.00;9.25;;;;;11.21;69.96;100665.31;5079753;27;46053;-59
2022/11/19 10:48:42;;;;;;;;;12.50;12.50;;;;;11.23;68.99;100666.09;5080229;27;45352;-62
2022/11/19 10:51:23;;;;;;;;;12.75;12.00;;;;;11.35;69.43;100663.66;5079815;27;45422;-60
2022/11/19 10:53:50;;;;;;;;;16.25;13.00;;;;;11.50;68.99;100652.09;5061872;28;45390;-57
2022/11/19 10:56:22;;;;;;;;;14.00;11.00;;;;;11.64;68.54;100667.28;5079550;28;46137;-51
2022/11/19 10:58:56;;;;;;;;;4.75;3.25;;;;;11.59;67.53;100656.91;5061342;28;45416;-49
2022/11/19 11:01:30;;;;;;;;;8.25;8.25;;;;;11.71;68.39;100661.47;5061829;27;45315;-56
2022/11/19 11:04:14;;;;;;;;;13.00;11.50;;;;;11.84;67.84;100660.78;5079929;27;45421;-62
2022/11/19 11:06:53;;;;;;;;;11.25;11.25;;;;;11.81;67.80;100657.34;5079845;28;46251;-57
2022/11/19 11:09:36;;;;;;;;;10.25;10.25;;;;;11.88;67.95;100657.00;5079462;27;45444;-56
2022/11/19 11:15:20;;;;;;;;;12.25;11.00;;;;;11.91;67.92;100654.13;5093556;27;45342;-55
2022/11/19 11:17:48;;;;;;;;;16.50;12.00;;;;;11.90;67.33;100655.09;5079513;27;46154;-59
2022/11/19 11:20:16;;;;;;;;;11.00;8.50;;;;;11.87;67.41;100655.28;5079466;27;46101;-56
2022/11/19 11:22:47;;;;;;;;;13.25;9.00;;;;;11.87;67.73;100655.28;5079563;27;45468;-57
2022/11/19 11:25:24;;;;;;;;;12.33;10.67;;;;;11.82;68.39;100653.72;5079829;27;45300;-61
2022/11/19 11:28:05;;;;;;;;;13.75;10.25;;;;;11.82;68.62;100658.22;5060697;28;47489;-64
2022/11/19 11:30:31;;;;;;;;;9.67;9.00;;;;;11.77;68.19;100654.94;5079452;27;45287;-60
2022/11/19 11:32:56;;;;;;;;;10.00;9.33;;;;;11.76;68.02;100658.56;5080278;28;45209;-58
2022/11/19 11:35:30;;;;;;;;;13.25;8.75;;;;;11.72;67.89;100657.88;5079619;27;45334;-56
2022/11/19 11:37:56;;;;;;;;;10.25;10.25;;;;;11.68;67.82;100651.00;5079050;28;45197;-55
2022/11/19 11:40:22;;;;;;;;;13.75;8.50;;;;;11.82;67.67;100660.88;5078799;27;45281;-61
2022/11/19 11:42:50;;;;;;;;;13.50;11.75;;;;;11.98;67.30;100647.47;5079621;28;45312;-54
2022/11/19 11:45:36;;;;;;;;;13.50;11.75;;;;;12.21;67.09;100648.72;5079248;27;45416;-51
2022/11/19 11:48:07;;;;;;;;;9.33;7.00;;;;;12.33;66.35;100642.63;5078926;28;45474;-57
2022/11/19 11:50:36;;;;;;;;;7.00;7.00;;;;;12.51;66.06;100635.31;5079107;28;45228;-56
2022/11/19 11:53:07;;;;;;;;;12.00;9.33;;;;;12.60;66.15;100634.69;5066780;28;45513;-58
2022/11/19 11:55:33;;;;;;;;;11.00;10.67;;;;;12.54;65.07;100637.78;5040009;28;45283;-59
2022/11/19 11:58:05;;;;;;;;;8.00;8.00;;;;;12.63;65.07;100645.16;5058193;28;45439;-56